createdAt,value
2023-09-03T00:03:35.882Z,14.60
2023-09-03T00:08:32.990Z,14.15
2023-09-03T00:13:29.483Z,13.82
2023-09-03T00:18:26.050Z,11.73
2023-09-03T00:23:22.909Z,12.10
2023-09-03T00:28:20.017Z,10.73
2023-09-03T00:33:16.904Z,10.82
2023-09-03T00:38:13.320Z,9.25
2023-09-03T00:43:09.748Z,8.13
2023-09-03T00:48:07.231Z,7.90
2023-09-03T00:53:04.514Z,7.72
2023-09-03T00:58:01.154Z,9.30
2023-09-03T01:02:57.632Z,8.15
2023-09-03T01:07:54.948Z,7.70
2023-09-03T01:13:02.905Z,7.17
2023-09-03T01:18:22.744Z,7.72
2023-09-03T01:23:47.451Z,7.15
2023-09-03T01:28:45.232Z,7.03
2023-09-03T01:33:44.166Z,6.78
2023-09-03T01:38:41.514Z,6.90
2023-09-03T01:43:38.072Z,7.90
2023-09-03T01:48:40.321Z,6.05
2023-09-03T01:53:51.987Z,7.53
2023-09-03T01:58:50.436Z,6.70
2023-09-03T02:03:48.940Z,7.45
2023-09-03T02:08:45.348Z,7.20
2023-09-03T02:13:41.747Z,6.25
2023-09-03T02:18:38.182Z,6.78
2023-09-03T02:23:34.683Z,6.50
2023-09-03T02:28:31.305Z,6.82
2023-09-03T02:33:27.749Z,6.68
2023-09-03T02:38:24.186Z,7.90
2023-09-03T02:43:20.596Z,6.32
2023-09-03T02:48:17.025Z,5.82
2023-09-03T02:53:13.400Z,5.88
2023-09-03T02:58:09.842Z,7.80
2023-09-03T03:03:06.361Z,7.15
2023-09-03T03:08:04.188Z,7.82
2023-09-03T03:13:00.871Z,7.40
2023-09-03T03:17:57.329Z,7.05
2023-09-03T03:22:54.155Z,7.78
2023-09-03T03:27:50.588Z,7.50
2023-09-03T03:32:47.027Z,9.27
2023-09-03T03:37:43.504Z,7.80
2023-09-03T03:42:40.122Z,6.28
2023-09-03T03:47:38.131Z,7.80
2023-09-03T03:52:34.547Z,8.23
2023-09-03T03:57:30.972Z,10.10
2023-09-03T04:02:27.401Z,9.60
2023-09-03T04:07:23.880Z,9.82
2023-09-03T04:12:20.773Z,8.50
2023-09-03T04:17:17.261Z,8.75
2023-09-03T04:22:14.201Z,7.72
2023-09-03T04:27:10.679Z,8.13
2023-09-03T04:32:07.435Z,8.35
2023-09-03T04:37:04.011Z,8.50
2023-09-03T04:42:00.469Z,8.65
2023-09-03T04:46:57.182Z,12.98
2023-09-03T04:51:53.630Z,15.68
2023-09-03T04:56:50.221Z,12.13
2023-09-03T05:01:47.517Z,11.95
2023-09-03T05:06:44.001Z,10.57
2023-09-03T05:11:43.338Z,10.15
2023-09-03T05:16:39.829Z,10.88
2023-09-03T05:21:36.282Z,9.35
2023-09-03T05:26:33.034Z,10.23
2023-09-03T05:31:31.713Z,9.13
2023-09-03T05:36:28.430Z,12.18
2023-09-03T05:41:24.841Z,10.52
2023-09-03T05:46:21.355Z,11.13
2023-09-03T05:51:18.097Z,9.18
2023-09-03T05:56:14.754Z,10.77
2023-09-03T06:01:12.220Z,9.88
2023-09-03T06:06:11.060Z,9.27
2023-09-03T06:11:09.120Z,8.45
2023-09-03T06:21:02.059Z,7.82
2023-09-03T06:25:58.616Z,9.25
2023-09-03T06:30:58.355Z,9.77
2023-09-03T06:35:55.314Z,9.10
2023-09-03T06:40:51.727Z,8.60
2023-09-03T06:45:48.187Z,9.77
2023-09-03T06:50:44.691Z,11.45
2023-09-03T06:55:44.018Z,14.40
2023-09-03T07:00:40.489Z,14.07
2023-09-03T07:05:37.030Z,14.35
2023-09-03T07:10:34.581Z,14.30
2023-09-03T07:15:31.001Z,13.35
2023-09-03T07:20:27.410Z,14.35
2023-09-03T07:25:23.957Z,11.93
2023-09-03T07:30:20.456Z,9.93
2023-09-03T07:35:16.944Z,10.02
2023-09-03T07:40:13.858Z,10.50
2023-09-03T07:45:10.734Z,10.63
2023-09-03T07:50:07.612Z,9.68
2023-09-03T07:55:04.265Z,6.40
2023-09-03T08:00:00.774Z,4.55
2023-09-03T08:04:57.243Z,4.22
2023-09-03T08:09:53.840Z,3.78
2023-09-03T08:14:50.903Z,3.63
2023-09-03T08:19:48.237Z,2.90
2023-09-03T08:24:44.631Z,3.22
2023-09-03T08:29:41.261Z,2.30
2023-09-03T08:34:38.102Z,1.70
2023-09-03T08:39:34.495Z,1.90
2023-09-03T08:44:43.295Z,1.45
2023-09-03T08:49:41.086Z,1.80
2023-09-03T08:54:38.886Z,1.50
2023-09-03T08:59:35.536Z,1.25
2023-09-03T09:04:32.396Z,1.20
2023-09-03T09:09:30.861Z,1.50
2023-09-03T09:14:38.458Z,1.48
2023-09-03T09:24:31.820Z,1.67
2023-09-03T09:29:28.271Z,1.10
2023-09-03T09:34:24.691Z,1.20
2023-09-03T09:39:22.713Z,1.00
2023-09-03T09:44:21.270Z,1.23
2023-09-03T09:49:17.686Z,1.10
2023-09-03T09:54:14.182Z,0.70
2023-09-03T09:59:11.310Z,1.20
2023-09-03T10:04:07.736Z,0.82
2023-09-03T10:09:04.678Z,1.60
2023-09-03T10:14:01.144Z,1.55
2023-09-03T10:19:01.387Z,1.25
2023-09-03T10:24:00.096Z,1.50
2023-09-03T10:29:04.166Z,1.30
2023-09-03T10:34:00.618Z,1.30
2023-09-03T10:38:59.208Z,1.37
2023-09-03T10:43:56.418Z,1.35
2023-09-03T10:48:57.937Z,1.85
2023-09-03T10:53:54.389Z,1.75
2023-09-03T10:58:57.685Z,1.48
2023-09-03T11:03:55.454Z,1.63
2023-09-03T11:09:01.040Z,2.25
2023-09-03T11:13:58.145Z,1.50
2023-09-03T11:18:54.767Z,1.40
2023-09-03T11:24:05.598Z,1.43
2023-09-03T11:29:03.698Z,1.35
2023-09-03T11:34:00.443Z,1.88
2023-09-03T11:38:57.883Z,1.40
2023-09-03T11:43:54.332Z,1.30
2023-09-03T11:48:52.656Z,1.05
2023-09-03T11:53:50.528Z,1.40
2023-09-03T11:58:51.847Z,1.08
2023-09-03T12:03:48.885Z,1.38
2023-09-03T12:08:46.110Z,1.20
2023-09-03T12:13:42.679Z,1.60
2023-09-03T12:18:40.226Z,1.47
2023-09-03T12:23:38.299Z,1.45
2023-09-03T12:28:37.337Z,1.70
2023-09-03T12:33:33.904Z,1.38
2023-09-03T12:38:30.428Z,1.40
2023-09-03T12:43:37.517Z,1.77
2023-09-03T12:48:33.900Z,1.25
2023-09-03T12:53:33.341Z,1.08
2023-09-03T12:58:29.741Z,1.17
2023-09-03T13:03:30.201Z,1.50
2023-09-03T13:08:26.727Z,1.00
2023-09-03T13:13:24.293Z,1.23
2023-09-03T13:18:21.472Z,0.93
2023-09-03T13:23:17.968Z,1.40
2023-09-03T13:28:14.462Z,1.17
2023-09-03T13:33:11.557Z,0.90
2023-09-03T13:43:05.088Z,1.33
2023-09-03T13:48:01.809Z,1.03
2023-09-03T13:52:59.783Z,0.82
2023-09-03T13:57:56.307Z,1.17
2023-09-03T14:02:52.754Z,0.63
2023-09-03T14:07:49.358Z,0.90
2023-09-03T14:12:45.800Z,0.70
2023-09-03T14:17:42.315Z,0.90
2023-09-03T14:22:39.948Z,1.17
2023-09-03T14:27:36.441Z,0.95
2023-09-03T14:32:32.962Z,0.67
2023-09-03T14:37:29.439Z,0.77
2023-09-03T14:42:25.858Z,1.03
2023-09-03T14:47:22.640Z,0.60
2023-09-03T14:52:20.319Z,0.80
2023-09-03T14:57:16.716Z,0.90
2023-09-03T15:02:13.157Z,0.60
2023-09-03T15:07:10.459Z,0.50
2023-09-03T15:22:00.784Z,0.90
2023-09-03T15:26:57.178Z,0.50
2023-09-03T15:31:53.700Z,0.60
2023-09-03T15:36:52.158Z,0.70
2023-09-03T15:41:48.565Z,1.20
2023-09-03T15:46:45.028Z,0.80
2023-09-03T15:51:45.917Z,0.87
2023-09-03T15:56:42.481Z,0.80
2023-09-03T16:01:38.960Z,0.70
2023-09-03T16:06:35.506Z,0.90
2023-09-03T16:11:32.022Z,0.70
2023-09-03T16:16:31.262Z,0.77
2023-09-03T16:21:27.921Z,0.70
2023-09-03T16:26:24.329Z,0.82
2023-09-03T16:31:20.759Z,0.93
2023-09-03T16:36:17.257Z,0.87
2023-09-03T16:41:13.790Z,0.80
2023-09-03T16:46:10.330Z,0.83
2023-09-03T16:51:06.723Z,0.53
2023-09-03T16:56:03.156Z,0.60
2023-09-03T17:00:59.665Z,0.97
2023-09-03T17:05:56.231Z,0.77
2023-09-03T17:10:52.692Z,1.00
2023-09-03T17:15:49.157Z,0.80
2023-09-03T17:20:45.617Z,0.80
2023-09-03T17:25:42.135Z,1.00
2023-09-03T17:30:38.689Z,0.90
2023-09-03T17:35:36.569Z,0.80
2023-09-03T17:40:33.027Z,1.17
2023-09-03T17:45:29.386Z,1.23
2023-09-03T17:50:25.801Z,0.90
2023-09-03T17:55:22.314Z,1.00
2023-09-03T18:00:18.837Z,0.90
2023-09-03T18:05:19.069Z,1.27
2023-09-03T18:10:15.513Z,1.08
2023-09-03T18:15:12.037Z,1.42
2023-09-03T18:20:08.821Z,0.80
2023-09-03T18:25:05.557Z,1.67
2023-09-03T18:30:04.706Z,1.23
2023-09-03T18:35:01.777Z,1.13
2023-09-03T18:39:58.186Z,1.40
2023-09-03T18:44:54.618Z,1.35
2023-09-03T18:49:51.003Z,1.20
2023-09-03T18:54:47.412Z,1.55
2023-09-03T18:59:44.882Z,1.73
2023-09-03T19:04:41.444Z,1.40
2023-09-03T19:09:39.794Z,1.20
2023-09-03T19:14:36.405Z,2.35
2023-09-03T19:19:32.862Z,2.15
2023-09-03T19:24:29.267Z,2.15
2023-09-03T19:29:26.290Z,2.28
2023-09-03T19:34:25.410Z,1.63
2023-09-03T19:39:22.896Z,2.40
2023-09-03T19:44:21.521Z,1.45
2023-09-03T19:49:18.040Z,1.77
2023-09-03T19:54:14.707Z,1.80
2023-09-03T19:59:11.109Z,1.73
2023-09-03T20:04:07.547Z,1.90
2023-09-03T20:09:06.598Z,1.70
2023-09-03T20:14:03.492Z,1.77
2023-09-03T20:18:59.990Z,2.17
2023-09-03T20:23:56.374Z,1.95
2023-09-03T20:28:53.197Z,1.90
2023-09-03T20:33:50.781Z,1.85
2023-09-03T20:38:47.517Z,2.33
2023-09-03T20:43:43.936Z,2.70
2023-09-03T20:48:40.477Z,2.38
2023-09-03T20:53:36.888Z,1.90
2023-09-03T20:58:33.860Z,2.08
2023-09-03T21:03:33.099Z,2.13
2023-09-03T21:08:30.819Z,1.88
2023-09-03T21:13:28.602Z,2.28
2023-09-03T21:18:27.423Z,2.10
2023-09-03T21:23:24.583Z,2.10
2023-09-03T21:28:21.555Z,2.05
2023-09-03T21:33:18.326Z,2.10
2023-09-03T21:38:14.798Z,2.15
2023-09-03T21:43:11.290Z,2.40
2023-09-03T21:48:08.564Z,2.10
2023-09-03T21:53:05.389Z,2.40
2023-09-03T21:58:01.782Z,2.40
2023-09-03T22:02:58.331Z,2.15
2023-09-03T22:07:55.093Z,2.10
2023-09-03T22:12:52.793Z,2.55
2023-09-03T22:17:49.301Z,1.65
2023-09-03T22:22:45.693Z,2.15
2023-09-03T22:27:42.148Z,2.13
2023-09-03T22:32:38.599Z,2.00
2023-09-03T22:37:35.037Z,2.38
2023-09-03T22:42:31.486Z,2.47
2023-09-03T22:47:29.637Z,2.20
2023-09-03T22:57:23.976Z,2.17
2023-09-03T23:02:20.434Z,2.22
2023-09-03T23:07:16.887Z,2.25
2023-09-03T23:12:13.603Z,2.75
2023-09-03T23:17:12.062Z,2.38
2023-09-03T23:22:08.626Z,1.88
2023-09-03T23:27:05.393Z,2.03
2023-09-03T23:32:01.748Z,2.38
2023-09-03T23:36:58.184Z,3.20
2023-09-03T23:41:56.686Z,1.95
2023-09-03T23:47:06.747Z,2.03
2023-09-03T23:52:09.483Z,2.08
2023-09-03T23:57:05.945Z,1.98
